createdAt,value
2023-03-31T00:01:21.642Z,76008.91
2023-03-31T00:03:49.617Z,76017.06
2023-03-31T00:06:19.383Z,76025.22
2023-03-31T00:08:51.639Z,76029.28
2023-03-31T00:11:22.540Z,76025.22
2023-03-31T00:13:50.464Z,76029.28
2023-03-31T00:16:18.361Z,76023.19
2023-03-31T00:18:47.818Z,76023.19
2023-03-31T00:21:25.571Z,76017.06
2023-03-31T00:23:55.660Z,76027.25
2023-03-31T00:26:26.227Z,76041.53
2023-03-31T00:28:54.895Z,76037.44
2023-03-31T00:31:23.276Z,76045.59
2023-03-31T00:33:51.419Z,76047.63
2023-03-31T00:36:21.517Z,76047.63
2023-03-31T00:38:49.863Z,76061.91
2023-03-31T00:41:17.610Z,76061.91
2023-03-31T00:44:08.484Z,76057.84
2023-03-31T00:46:41.363Z,76055.78
2023-03-31T00:49:16.239Z,76053.75
2023-03-31T00:51:46.050Z,76057.84
2023-03-31T00:54:15.426Z,76066.00
2023-03-31T00:56:48.176Z,76061.91
2023-03-31T00:59:18.031Z,76070.06
2023-03-31T01:01:50.542Z,76068.03
2023-03-31T01:04:22.647Z,76078.22
2023-03-31T01:07:00.926Z,76070.06
2023-03-31T01:09:34.957Z,76066.00
2023-03-31T01:12:04.504Z,76066.00
2023-03-31T01:14:34.038Z,76063.94
2023-03-31T01:17:03.025Z,76047.63
2023-03-31T01:19:46.150Z,76051.72
2023-03-31T01:22:46.920Z,76045.59
2023-03-31T01:25:42.681Z,76049.69
2023-03-31T01:28:21.275Z,76051.72
2023-03-31T01:31:28.268Z,76055.78
2023-03-31T01:34:33.440Z,76057.84
2023-03-31T01:37:45.955Z,76070.06
2023-03-31T01:40:47.460Z,76066.00
2023-03-31T01:43:19.875Z,76066.00
2023-03-31T01:45:58.715Z,76063.94
2023-03-31T01:48:36.800Z,76066.00
2023-03-31T01:51:12.280Z,76068.03
2023-03-31T01:53:49.590Z,76061.91
2023-03-31T01:56:23.454Z,76074.16
2023-03-31T01:58:57.311Z,76070.06
2023-03-31T02:01:31.123Z,76061.91
2023-03-31T02:04:04.337Z,76057.84
2023-03-31T02:06:37.572Z,76055.78
2023-03-31T02:09:10.845Z,76053.75
2023-03-31T02:11:42.751Z,76061.91
2023-03-31T02:14:13.614Z,76072.09
2023-03-31T02:16:47.629Z,76082.28
2023-03-31T02:19:18.829Z,76094.53
2023-03-31T02:21:49.730Z,76108.81
2023-03-31T02:24:20.991Z,76114.91
2023-03-31T02:26:55.385Z,76110.84
2023-03-31T02:29:23.680Z,76106.75
2023-03-31T02:31:59.420Z,76102.69
2023-03-31T02:34:27.240Z,76100.66
2023-03-31T02:36:55.204Z,76104.72
2023-03-31T02:39:27.052Z,76098.59
2023-03-31T02:41:56.676Z,76098.59
2023-03-31T02:44:24.698Z,76096.56
2023-03-31T02:46:52.959Z,76096.56
2023-03-31T02:49:22.415Z,76094.53
2023-03-31T02:52:03.169Z,76092.50
2023-03-31T02:55:18.623Z,76108.81
2023-03-31T02:58:24.676Z,76102.69
2023-03-31T03:01:12.559Z,76100.66
2023-03-31T03:03:52.316Z,76102.69
2023-03-31T03:06:37.574Z,76098.59
2023-03-31T03:09:14.694Z,76098.59
2023-03-31T03:11:49.068Z,76098.59
2023-03-31T03:14:26.015Z,76098.59
2023-03-31T03:17:00.464Z,76106.75
2023-03-31T03:19:28.215Z,76110.84
2023-03-31T03:21:56.481Z,76123.06
2023-03-31T03:24:24.276Z,76112.88
2023-03-31T03:26:52.054Z,76106.75
2023-03-31T03:29:19.907Z,76102.69
2023-03-31T03:31:47.916Z,76094.53
2023-03-31T03:34:18.644Z,76094.53
2023-03-31T03:36:46.602Z,76090.44
2023-03-31T03:39:14.473Z,76088.41
2023-03-31T03:41:42.205Z,76090.44
2023-03-31T03:44:09.987Z,76084.34
2023-03-31T03:46:37.754Z,76094.53
2023-03-31T03:49:05.552Z,76094.53
2023-03-31T03:51:34.700Z,76094.53
2023-03-31T03:54:02.545Z,76090.44
2023-03-31T03:56:30.392Z,76102.69
2023-03-31T03:58:58.472Z,76106.75
2023-03-31T04:01:26.383Z,76121.03
2023-03-31T04:03:54.119Z,76119.00
2023-03-31T04:06:22.054Z,76114.91
2023-03-31T04:08:51.129Z,76114.91
2023-03-31T04:11:20.172Z,76119.00
2023-03-31T04:13:48.743Z,76114.91
2023-03-31T04:16:16.943Z,76108.81
2023-03-31T04:18:46.072Z,76102.69
2023-03-31T04:21:22.708Z,76102.69
2023-03-31T04:23:58.884Z,76096.56
2023-03-31T04:26:39.054Z,76086.38
2023-03-31T04:29:07.582Z,76092.50
2023-03-31T04:31:38.818Z,76098.59
2023-03-31T04:34:13.291Z,76106.75
2023-03-31T04:36:42.724Z,76114.91
2023-03-31T04:39:11.863Z,76119.00
2023-03-31T04:41:39.643Z,76102.69
2023-03-31T04:44:07.555Z,76092.50
2023-03-31T04:46:36.398Z,76090.44
2023-03-31T04:49:05.716Z,76090.44
2023-03-31T04:51:33.627Z,76082.28
2023-03-31T04:54:01.381Z,76074.16
2023-03-31T04:56:30.551Z,76068.03
2023-03-31T04:58:58.405Z,76059.88
2023-03-31T05:01:26.217Z,76053.75
2023-03-31T05:03:54.143Z,76047.63
2023-03-31T05:06:21.963Z,76031.31
2023-03-31T05:08:49.702Z,76019.09
2023-03-31T05:11:17.423Z,76004.81
2023-03-31T05:13:46.696Z,75988.50
2023-03-31T05:16:16.322Z,75982.41
2023-03-31T05:18:44.182Z,75968.13
2023-03-31T05:21:16.325Z,75955.91
2023-03-31T05:23:44.955Z,75947.75
2023-03-31T05:26:13.690Z,75943.66
2023-03-31T05:28:42.326Z,75943.66
2023-03-31T05:31:13.127Z,75941.63
2023-03-31T05:33:42.174Z,75929.41
2023-03-31T05:36:12.009Z,75921.25
2023-03-31T05:38:39.915Z,75919.19
2023-03-31T05:41:09.456Z,75906.97
2023-03-31T05:43:37.708Z,75904.94
2023-03-31T05:46:06.693Z,75894.75
2023-03-31T05:48:37.918Z,75892.69
2023-03-31T05:51:06.128Z,75890.66
2023-03-31T05:53:34.201Z,75878.44
2023-03-31T05:56:04.121Z,75870.28
2023-03-31T05:58:32.118Z,75860.06
2023-03-31T06:01:08.192Z,75851.91
2023-03-31T06:03:39.093Z,75837.66
2023-03-31T06:06:08.256Z,75831.53
2023-03-31T06:08:36.317Z,75829.50
2023-03-31T06:11:06.845Z,75827.47
2023-03-31T06:13:35.046Z,75825.41
2023-03-31T06:16:02.948Z,75819.31
2023-03-31T06:18:32.512Z,75817.25
2023-03-31T06:21:01.677Z,75813.19
2023-03-31T06:23:29.524Z,75794.84
2023-03-31T06:26:02.279Z,75780.56
2023-03-31T06:28:30.627Z,75784.66
2023-03-31T06:31:02.851Z,75770.38
2023-03-31T06:33:30.798Z,75752.03
2023-03-31T06:35:59.572Z,75735.72
2023-03-31T06:38:28.963Z,75711.25
2023-03-31T06:40:56.788Z,75703.09
2023-03-31T06:43:24.681Z,75686.78
2023-03-31T06:45:54.061Z,75684.75
2023-03-31T06:48:22.148Z,75680.69
2023-03-31T06:50:50.267Z,75670.50
2023-03-31T06:53:18.486Z,75666.41
2023-03-31T06:55:47.593Z,75658.25
2023-03-31T06:58:15.721Z,75639.91
2023-03-31T07:00:45.913Z,75627.69
2023-03-31T07:03:14.783Z,75619.53
2023-03-31T07:05:42.637Z,75597.09
2023-03-31T07:08:10.641Z,75572.63
2023-03-31T07:10:38.470Z,75548.19
2023-03-31T07:13:07.563Z,75519.63
2023-03-31T07:15:35.605Z,75495.19
2023-03-31T07:18:03.418Z,75476.84
2023-03-31T07:20:32.742Z,75454.41
2023-03-31T07:23:00.559Z,75438.09
2023-03-31T07:25:28.359Z,75419.75
2023-03-31T07:27:56.102Z,75419.75
2023-03-31T07:30:25.344Z,75413.66
2023-03-31T07:32:54.755Z,75397.34
2023-03-31T07:35:23.030Z,75405.50
2023-03-31T07:37:52.227Z,75397.34
2023-03-31T07:40:22.398Z,75397.34
2023-03-31T07:42:52.165Z,75391.22
2023-03-31T07:45:20.826Z,75391.22
2023-03-31T07:47:50.618Z,75391.22
2023-03-31T07:50:19.344Z,75389.19
2023-03-31T07:52:47.432Z,75381.03
2023-03-31T07:55:15.466Z,75376.94
2023-03-31T07:57:46.181Z,75376.94
2023-03-31T08:00:15.819Z,75368.78
2023-03-31T08:02:44.633Z,75348.41
2023-03-31T08:05:15.839Z,75340.25
2023-03-31T08:07:45.712Z,75328.03
2023-03-31T08:10:15.906Z,75311.72
2023-03-31T08:12:43.985Z,75313.75
2023-03-31T08:15:12.649Z,75303.56
2023-03-31T08:17:41.225Z,75295.41
2023-03-31T08:20:10.616Z,75283.19
2023-03-31T08:22:42.364Z,75287.25
2023-03-31T08:25:11.310Z,75289.31
2023-03-31T08:27:41.298Z,75283.19
2023-03-31T08:30:11.351Z,75281.16
2023-03-31T08:32:39.198Z,75262.81
2023-03-31T08:35:08.545Z,75256.69
2023-03-31T08:37:36.451Z,75238.34
2023-03-31T08:40:09.470Z,75230.19
2023-03-31T08:42:40.650Z,75215.91
2023-03-31T08:45:18.264Z,75215.91
2023-03-31T08:47:48.943Z,75193.50
2023-03-31T08:50:20.131Z,75181.28
2023-03-31T08:52:51.073Z,75164.97
2023-03-31T08:55:26.788Z,75167.00
2023-03-31T08:58:00.961Z,75162.94
2023-03-31T09:00:36.645Z,75160.88
2023-03-31T09:03:11.985Z,75156.81
2023-03-31T09:06:00.275Z,75154.78
2023-03-31T09:08:37.613Z,75144.59
2023-03-31T09:11:14.994Z,75132.34
2023-03-31T09:13:58.037Z,75118.09
2023-03-31T09:16:28.553Z,75114.00
2023-03-31T09:19:01.519Z,75111.97
2023-03-31T09:21:33.190Z,75111.97
2023-03-31T09:24:07.558Z,75103.81
2023-03-31T09:26:41.378Z,75107.91
2023-03-31T09:29:18.654Z,75105.84
2023-03-31T09:31:48.457Z,75099.75
2023-03-31T09:34:18.612Z,75091.59
2023-03-31T09:36:46.487Z,75087.50
2023-03-31T09:39:16.073Z,75083.44
2023-03-31T09:41:49.139Z,75083.44
2023-03-31T09:44:27.032Z,75077.31
2023-03-31T09:46:56.239Z,75081.41
2023-03-31T09:49:27.231Z,75085.47
2023-03-31T09:52:03.411Z,75097.72
2023-03-31T09:54:37.542Z,75101.78
2023-03-31T09:57:16.162Z,75105.84
2023-03-31T09:59:45.912Z,75114.00
2023-03-31T10:02:35.397Z,75109.94
2023-03-31T10:05:04.507Z,75095.66
2023-03-31T10:07:32.603Z,75085.47
2023-03-31T10:10:00.604Z,75099.75
2023-03-31T10:12:32.196Z,75114.00
2023-03-31T10:15:17.691Z,75103.81
2023-03-31T10:17:55.044Z,75095.66
2023-03-31T10:20:33.251Z,75079.38
2023-03-31T10:23:05.708Z,75058.97
2023-03-31T10:25:34.657Z,75046.75
2023-03-31T10:28:04.560Z,75018.22
2023-03-31T10:30:37.875Z,74977.47
2023-03-31T10:33:22.887Z,74953.00
2023-03-31T10:35:55.481Z,74924.47
2023-03-31T10:38:31.762Z,74893.91
2023-03-31T10:41:00.792Z,74891.84
2023-03-31T10:43:34.397Z,74863.31
2023-03-31T10:46:03.166Z,74855.16
2023-03-31T10:48:32.889Z,74830.72
2023-03-31T10:51:02.244Z,74777.72
2023-03-31T10:53:30.518Z,74753.28
2023-03-31T10:56:10.039Z,74745.13
2023-03-31T10:59:02.440Z,74716.59
2023-03-31T11:01:45.498Z,74651.38
2023-03-31T11:04:44.316Z,74590.22
2023-03-31T11:07:28.391Z,74578.00
2023-03-31T11:10:19.306Z,74525.03
2023-03-31T11:12:53.484Z,74516.88
2023-03-31T11:15:29.165Z,74533.16
2023-03-31T11:18:13.760Z,74535.22
2023-03-31T11:20:54.249Z,74541.31
2023-03-31T11:23:34.781Z,74543.34
2023-03-31T11:26:06.529Z,74575.97
2023-03-31T11:28:44.880Z,74594.31
2023-03-31T11:31:28.720Z,74633.03
2023-03-31T11:34:12.577Z,74661.56
2023-03-31T11:37:05.118Z,74692.13
2023-03-31T11:39:46.332Z,74704.34
2023-03-31T11:42:18.328Z,74700.28
2023-03-31T11:44:53.044Z,74659.53
2023-03-31T11:47:25.524Z,74635.06
2023-03-31T11:49:56.994Z,74590.22
2023-03-31T11:52:30.603Z,74539.28
2023-03-31T11:55:03.440Z,74490.38
2023-03-31T11:57:35.297Z,74476.13
2023-03-31T12:00:11.137Z,74472.03
2023-03-31T12:02:47.169Z,74459.81
2023-03-31T12:05:17.059Z,74402.75
2023-03-31T12:07:49.380Z,74362.00
2023-03-31T12:10:21.712Z,74331.44
2023-03-31T12:12:56.692Z,74337.53
2023-03-31T12:15:28.585Z,74362.00
2023-03-31T12:18:02.745Z,74345.69
2023-03-31T12:20:34.832Z,74296.78
2023-03-31T12:23:06.422Z,74284.56
2023-03-31T12:25:44.033Z,74268.25
2023-03-31T12:28:12.976Z,74264.19
2023-03-31T12:30:44.362Z,74262.16
2023-03-31T12:33:19.844Z,74247.88
2023-03-31T12:36:08.736Z,74219.34
2023-03-31T12:39:00.360Z,74182.69
2023-03-31T12:41:37.057Z,74211.22
2023-03-31T12:44:17.686Z,74211.22
2023-03-31T12:47:18.605Z,74201.00
2023-03-31T12:50:01.583Z,74178.59
2023-03-31T12:52:40.577Z,74180.63
2023-03-31T12:55:33.431Z,74186.75
2023-03-31T12:58:38.724Z,74203.06
2023-03-31T13:01:17.090Z,74211.22
2023-03-31T13:03:53.653Z,74198.97
2023-03-31T13:07:01.092Z,74203.06
2023-03-31T13:09:53.078Z,74215.28
2023-03-31T13:12:23.777Z,74231.59
2023-03-31T13:14:54.285Z,74227.50
2023-03-31T13:17:29.000Z,74231.59
2023-03-31T13:20:15.798Z,74215.28
2023-03-31T13:22:48.228Z,74203.06
2023-03-31T13:25:41.077Z,74192.88
2023-03-31T13:28:18.314Z,74180.63
2023-03-31T13:30:48.998Z,74154.16
2023-03-31T13:33:22.149Z,74162.31
2023-03-31T13:35:53.994Z,74174.53
2023-03-31T13:38:35.474Z,74182.69
2023-03-31T13:41:32.078Z,74170.44
2023-03-31T13:44:11.446Z,74166.38
2023-03-31T13:46:52.283Z,74164.34
2023-03-31T13:49:54.042Z,74162.31
2023-03-31T13:52:34.491Z,74162.31
2023-03-31T13:55:21.845Z,74170.44
2023-03-31T13:58:33.609Z,74215.28
2023-03-31T14:01:32.918Z,74243.81
2023-03-31T14:04:15.704Z,74272.34
2023-03-31T14:06:51.756Z,74313.09
2023-03-31T14:09:26.357Z,74321.25
2023-03-31T14:11:54.663Z,74372.19
2023-03-31T14:14:26.427Z,74441.47
2023-03-31T14:16:56.749Z,74478.16
2023-03-31T14:19:55.140Z,74527.06
2023-03-31T14:22:36.215Z,74631.00
2023-03-31T14:25:13.887Z,74724.75
2023-03-31T14:27:55.332Z,74844.97
2023-03-31T14:30:35.082Z,74920.38
2023-03-31T14:33:17.146Z,74936.69
2023-03-31T14:35:58.013Z,74961.16
2023-03-31T14:38:29.750Z,74957.06
2023-03-31T14:41:01.070Z,74989.69
2023-03-31T14:43:33.581Z,74991.72
2023-03-31T14:46:04.753Z,74997.84
2023-03-31T14:48:35.714Z,74985.59
2023-03-31T14:51:04.939Z,74981.53
2023-03-31T14:53:32.688Z,74977.47
2023-03-31T14:56:06.641Z,74975.41
2023-03-31T14:58:37.798Z,74963.19
2023-03-31T15:01:09.924Z,74953.00
2023-03-31T15:03:42.078Z,74965.22
2023-03-31T15:06:11.007Z,74957.06
2023-03-31T15:08:39.601Z,74953.00
2023-03-31T15:11:13.851Z,74946.88
2023-03-31T15:13:56.565Z,74944.84
2023-03-31T15:16:35.541Z,74932.63
2023-03-31T15:19:08.750Z,74936.69
2023-03-31T15:21:38.880Z,74940.78
2023-03-31T15:24:07.978Z,74940.78
2023-03-31T15:26:41.843Z,74932.63
2023-03-31T15:29:17.222Z,74932.63
2023-03-31T15:31:46.717Z,74930.56
2023-03-31T15:34:24.795Z,74932.63
2023-03-31T15:36:55.496Z,74932.63
2023-03-31T15:39:24.210Z,74926.50
2023-03-31T15:41:52.462Z,74918.34
2023-03-31T15:44:36.403Z,74900.00
2023-03-31T15:47:13.928Z,74887.78
2023-03-31T15:49:49.807Z,74879.63
2023-03-31T15:52:33.199Z,74867.41
2023-03-31T15:55:01.911Z,74869.44
2023-03-31T15:57:35.449Z,74857.22
2023-03-31T16:00:07.263Z,74847.00
2023-03-31T16:02:46.395Z,74842.94
2023-03-31T16:05:37.401Z,74847.00
2023-03-31T16:08:18.511Z,74838.88
2023-03-31T16:10:46.620Z,74838.88
2023-03-31T16:13:23.179Z,74838.88
2023-03-31T16:15:54.757Z,74851.09
2023-03-31T16:18:31.314Z,74855.16
2023-03-31T16:21:02.322Z,74849.06
2023-03-31T16:23:34.452Z,74849.06
2023-03-31T16:26:02.817Z,74851.09
2023-03-31T16:28:34.268Z,74849.06
2023-03-31T16:31:02.355Z,74861.28
2023-03-31T16:33:32.601Z,74869.44
2023-03-31T16:36:03.690Z,74875.56
2023-03-31T16:38:31.432Z,74879.63
2023-03-31T16:41:00.514Z,74879.63
2023-03-31T16:43:30.636Z,74877.59
2023-03-31T16:45:59.908Z,74871.47
2023-03-31T16:48:29.337Z,74867.41
2023-03-31T16:51:00.384Z,74867.41
2023-03-31T16:53:29.306Z,74855.16
2023-03-31T16:55:58.492Z,74855.16
2023-03-31T16:58:28.432Z,74834.78
2023-03-31T17:00:56.833Z,74826.63
2023-03-31T17:03:25.307Z,74822.56
2023-03-31T17:05:58.478Z,74798.09
2023-03-31T17:08:28.816Z,74777.72
2023-03-31T17:11:00.718Z,74783.84
2023-03-31T17:13:28.998Z,74781.81
2023-03-31T17:16:04.545Z,74781.81
2023-03-31T17:18:43.790Z,74785.88
2023-03-31T17:21:14.502Z,74787.91
2023-03-31T17:23:43.690Z,74796.06
2023-03-31T17:26:13.269Z,74796.06
2023-03-31T17:28:41.696Z,74806.25
2023-03-31T17:31:14.037Z,74794.03
2023-03-31T17:33:42.403Z,74806.25
2023-03-31T17:36:10.258Z,74818.47
2023-03-31T17:38:38.527Z,74826.63
2023-03-31T17:41:09.605Z,74828.69
2023-03-31T17:43:38.023Z,74804.22
2023-03-31T17:46:09.254Z,74806.25
2023-03-31T17:48:39.185Z,74824.59
2023-03-31T17:51:07.956Z,74822.56
2023-03-31T17:53:36.352Z,74816.44
2023-03-31T17:56:05.971Z,74822.56
2023-03-31T17:58:35.390Z,74820.53
2023-03-31T18:01:06.003Z,74830.72
2023-03-31T18:03:34.231Z,74822.56
2023-03-31T18:06:06.652Z,74828.69
2023-03-31T18:08:35.094Z,74834.78
2023-03-31T18:11:05.230Z,74842.94
2023-03-31T18:13:36.235Z,74851.09
2023-03-31T18:16:05.104Z,74834.78
2023-03-31T18:18:33.569Z,74842.94
2023-03-31T18:21:04.518Z,74847.00
2023-03-31T18:23:32.439Z,74849.06
2023-03-31T18:26:00.552Z,74851.09
2023-03-31T18:28:28.347Z,74851.09
2023-03-31T18:30:57.847Z,74847.00
2023-03-31T18:33:25.786Z,74857.22
2023-03-31T18:35:53.743Z,74865.34
2023-03-31T18:38:21.976Z,74859.25
2023-03-31T18:40:50.801Z,74851.09
2023-03-31T18:43:19.318Z,74851.09
2023-03-31T18:45:49.449Z,74855.16
2023-03-31T18:48:19.220Z,74832.75
2023-03-31T18:50:47.027Z,74830.72
2023-03-31T18:53:15.937Z,74822.56
2023-03-31T18:55:43.821Z,74830.72
2023-03-31T18:58:11.623Z,74842.94
2023-03-31T19:00:40.885Z,74855.16
2023-03-31T19:03:08.957Z,74869.44
2023-03-31T19:05:38.757Z,74877.59
2023-03-31T19:08:07.213Z,74879.63
2023-03-31T19:10:35.076Z,74891.84
2023-03-31T19:13:03.142Z,74908.16
2023-03-31T19:15:31.001Z,74912.22
2023-03-31T19:17:59.048Z,74920.38
2023-03-31T19:20:27.462Z,74934.66
2023-03-31T19:22:56.910Z,74938.72
2023-03-31T19:25:25.144Z,74953.00
2023-03-31T19:27:52.946Z,74959.13
2023-03-31T19:30:22.580Z,74965.22
2023-03-31T19:32:51.077Z,74961.16
2023-03-31T19:35:20.423Z,74973.38
2023-03-31T19:37:48.677Z,74969.31
2023-03-31T19:40:19.705Z,74989.69
2023-03-31T19:42:47.648Z,74987.66
2023-03-31T19:45:15.428Z,74997.84
2023-03-31T19:47:43.150Z,75001.91
2023-03-31T19:50:13.123Z,75006.00
2023-03-31T19:52:40.884Z,75010.06
2023-03-31T19:55:08.924Z,75026.38
2023-03-31T19:57:38.313Z,75026.38
2023-03-31T20:00:08.039Z,75038.59
2023-03-31T20:02:36.122Z,75038.59
2023-03-31T20:05:04.338Z,75032.47
2023-03-31T20:07:32.084Z,75028.41
2023-03-31T20:09:59.838Z,75022.28
2023-03-31T20:12:28.341Z,75018.22
2023-03-31T20:14:57.466Z,75014.13
2023-03-31T20:17:25.261Z,75014.13
2023-03-31T20:19:53.064Z,75020.25
2023-03-31T20:22:20.982Z,75016.19
2023-03-31T20:24:48.782Z,75030.44
2023-03-31T20:27:16.569Z,75028.41
2023-03-31T20:29:44.296Z,75034.53
2023-03-31T20:32:15.541Z,75054.91
2023-03-31T20:34:43.397Z,75063.06
2023-03-31T20:37:11.138Z,75052.88
2023-03-31T20:39:38.869Z,75038.59
2023-03-31T20:42:06.824Z,75016.19
2023-03-31T20:44:34.774Z,74987.66
2023-03-31T20:47:02.676Z,75010.06
2023-03-31T20:49:32.130Z,75034.53
2023-03-31T20:51:59.939Z,75048.78
2023-03-31T20:54:27.755Z,75046.75
2023-03-31T20:56:55.542Z,75038.59
2023-03-31T20:59:24.069Z,75046.75
2023-03-31T21:01:51.905Z,75046.75
2023-03-31T21:04:20.915Z,75058.97
2023-03-31T21:06:50.319Z,75046.75
2023-03-31T21:09:18.378Z,75054.91
2023-03-31T21:11:46.390Z,75058.97
2023-03-31T21:14:16.538Z,75063.06
2023-03-31T21:16:44.513Z,75063.06
2023-03-31T21:19:12.492Z,75067.13
2023-03-31T21:21:41.305Z,75067.13
2023-03-31T21:24:12.465Z,75071.22
2023-03-31T21:26:40.818Z,75073.25
2023-03-31T21:29:09.004Z,75067.13
2023-03-31T21:31:36.935Z,75077.31
2023-03-31T21:34:04.808Z,75069.16
2023-03-31T21:36:32.576Z,75071.22
2023-03-31T21:39:00.371Z,75077.31
2023-03-31T21:41:31.505Z,75079.38
2023-03-31T21:44:02.420Z,75081.41
2023-03-31T21:46:32.681Z,75075.28
2023-03-31T21:49:01.154Z,75075.28
2023-03-31T21:51:29.427Z,75079.38
2023-03-31T21:53:57.639Z,75079.38
2023-03-31T21:56:27.614Z,75083.44
2023-03-31T21:58:57.110Z,75083.44
2023-03-31T22:01:25.053Z,75091.59
2023-03-31T22:03:53.336Z,75093.63
2023-03-31T22:06:22.381Z,75095.66
2023-03-31T22:08:50.823Z,75083.44
2023-03-31T22:11:18.613Z,75079.38
2023-03-31T22:13:46.372Z,75075.28
2023-03-31T22:16:18.084Z,75075.28
2023-03-31T22:18:47.062Z,75073.25
2023-03-31T22:21:19.697Z,75071.22
2023-03-31T22:23:47.743Z,75071.22
2023-03-31T22:26:15.601Z,75075.28
2023-03-31T22:28:43.344Z,75065.09
2023-03-31T22:31:11.237Z,75075.28
2023-03-31T22:33:40.441Z,75077.31
2023-03-31T22:36:09.204Z,75079.38
2023-03-31T22:38:37.062Z,75087.50
2023-03-31T22:41:05.156Z,75091.59
2023-03-31T22:43:33.742Z,75091.59
2023-03-31T22:46:04.003Z,75093.63
2023-03-31T22:48:31.999Z,75097.72
2023-03-31T22:51:03.559Z,75101.78
2023-03-31T22:53:32.077Z,75103.81
2023-03-31T22:56:05.144Z,75107.91
2023-03-31T22:58:32.912Z,75109.94
2023-03-31T23:01:01.694Z,75111.97
2023-03-31T23:03:29.596Z,75111.97
2023-03-31T23:05:57.666Z,75107.91
2023-03-31T23:08:27.196Z,75109.94
2023-03-31T23:10:56.701Z,75118.09
2023-03-31T23:13:24.834Z,75116.06
2023-03-31T23:15:52.633Z,75116.06
2023-03-31T23:18:20.526Z,75118.09
2023-03-31T23:20:48.487Z,75111.97
2023-03-31T23:23:17.613Z,75120.13
2023-03-31T23:25:46.708Z,75120.13
2023-03-31T23:28:14.433Z,75124.19
2023-03-31T23:30:42.233Z,75136.44
2023-03-31T23:33:10.024Z,75136.44
2023-03-31T23:35:37.863Z,75144.59
2023-03-31T23:38:06.303Z,75148.66
2023-03-31T23:40:34.025Z,75136.44
2023-03-31T23:43:03.117Z,75132.34
2023-03-31T23:45:31.081Z,75144.59
2023-03-31T23:47:59.049Z,75138.47
2023-03-31T23:50:27.249Z,75144.59
2023-03-31T23:52:55.629Z,75142.53
2023-03-31T23:55:23.531Z,75140.50
2023-03-31T23:57:51.633Z,75144.59
